sensor_id;sensor_type;location;lat;lon;timestamp;P1;durP1;ratioP1;P2;durP2;ratioP2
49252;SDS011;35103;47.952;-1.502;2022-07-18T00:00:09;883.45;;;803.75;;
49252;SDS011;35103;47.952;-1.502;2022-07-18T00:02:35;842.90;;;770.65;;
49252;SDS011;35103;47.952;-1.502;2022-07-18T00:05:01;864.00;;;788.50;;
49252;SDS011;35103;47.952;-1.502;2022-07-18T00:07:27;874.97;;;800.92;;
49252;SDS011;35103;47.952;-1.502;2022-07-18T00:09:53;837.10;;;769.95;;
49252;SDS011;35103;47.952;-1.502;2022-07-18T00:12:18;849.55;;;773.28;;
49252;SDS011;35103;47.952;-1.502;2022-07-18T00:14:44;855.13;;;778.10;;
49252;SDS011;35103;47.952;-1.502;2022-07-18T00:17:10;863.17;;;789.25;;
49252;SDS011;35103;47.952;-1.502;2022-07-18T00:19:36;887.78;;;813.38;;
49252;SDS011;35103;47.952;-1.502;2022-07-18T00:22:03;840.95;;;766.42;;
49252;SDS011;35103;47.952;-1.502;2022-07-18T00:24:29;913.70;;;828.78;;
49252;SDS011;35103;47.952;-1.502;2022-07-18T00:26:55;825.28;;;755.33;;
49252;SDS011;35103;47.952;-1.502;2022-07-18T00:29:20;865.33;;;790.58;;
49252;SDS011;35103;47.952;-1.502;2022-07-18T00:31:46;869.78;;;793.42;;
49252;SDS011;35103;47.952;-1.502;2022-07-18T00:34:11;891.97;;;810.78;;
49252;SDS011;35103;47.952;-1.502;2022-07-18T00:36:37;809.25;;;740.20;;
49252;SDS011;35103;47.952;-1.502;2022-07-18T00:39:03;801.00;;;732.40;;
49252;SDS011;35103;47.952;-1.502;2022-07-18T00:41:29;884.33;;;806.90;;
49252;SDS011;35103;47.952;-1.502;2022-07-18T00:43:54;897.95;;;821.58;;
49252;SDS011;35103;47.952;-1.502;2022-07-18T00:46:21;874.80;;;796.67;;
49252;SDS011;35103;47.952;-1.502;2022-07-18T00:48:47;803.80;;;736.72;;
49252;SDS011;35103;47.952;-1.502;2022-07-18T00:51:12;917.45;;;831.13;;
49252;SDS011;35103;47.952;-1.502;2022-07-18T00:53:38;894.67;;;815.90;;
49252;SDS011;35103;47.952;-1.502;2022-07-18T00:56:04;822.95;;;753.15;;
49252;SDS011;35103;47.952;-1.502;2022-07-18T00:58:30;842.28;;;770.95;;
49252;SDS011;35103;47.952;-1.502;2022-07-18T01:00:57;888.40;;;809.88;;
49252;SDS011;35103;47.952;-1.502;2022-07-18T01:03:23;911.95;;;833.67;;
49252;SDS011;35103;47.952;-1.502;2022-07-18T01:05:49;845.10;;;772.08;;
49252;SDS011;35103;47.952;-1.502;2022-07-18T01:08:15;870.88;;;794.95;;
49252;SDS011;35103;47.952;-1.502;2022-07-18T01:10:40;882.80;;;802.10;;
49252;SDS011;35103;47.952;-1.502;2022-07-18T01:13:06;825.45;;;752.25;;
49252;SDS011;35103;47.952;-1.502;2022-07-18T01:15:32;857.33;;;781.50;;
49252;SDS011;35103;47.952;-1.502;2022-07-18T01:17:58;845.72;;;772.15;;
49252;SDS011;35103;47.952;-1.502;2022-07-18T01:20:27;864.17;;;786.33;;
49252;SDS011;35103;47.952;-1.502;2022-07-18T01:22:54;892.67;;;812.75;;
49252;SDS011;35103;47.952;-1.502;2022-07-18T01:25:19;797.65;;;735.13;;
49252;SDS011;35103;47.952;-1.502;2022-07-18T01:27:45;816.80;;;750.97;;
49252;SDS011;35103;47.952;-1.502;2022-07-18T01:30:11;819.70;;;750.95;;
49252;SDS011;35103;47.952;-1.502;2022-07-18T01:32:37;865.65;;;786.13;;
49252;SDS011;35103;47.952;-1.502;2022-07-18T01:35:03;852.35;;;779.40;;
49252;SDS011;35103;47.952;-1.502;2022-07-18T01:37:29;890.05;;;814.38;;
49252;SDS011;35103;47.952;-1.502;2022-07-18T01:39:55;837.13;;;765.08;;
49252;SDS011;35103;47.952;-1.502;2022-07-18T01:42:20;869.17;;;792.65;;
49252;SDS011;35103;47.952;-1.502;2022-07-18T01:44:46;810.85;;;745.45;;
49252;SDS011;35103;47.952;-1.502;2022-07-18T01:47:11;829.20;;;764.63;;
49252;SDS011;35103;47.952;-1.502;2022-07-18T01:49:38;830.47;;;758.20;;
49252;SDS011;35103;47.952;-1.502;2022-07-18T01:52:04;848.72;;;777.33;;
49252;SDS011;35103;47.952;-1.502;2022-07-18T01:54:31;880.13;;;805.72;;
49252;SDS011;35103;47.952;-1.502;2022-07-18T01:56:59;912.72;;;829.70;;
49252;SDS011;35103;47.952;-1.502;2022-07-18T01:59:26;813.95;;;746.00;;
49252;SDS011;35103;47.952;-1.502;2022-07-18T02:01:52;829.15;;;762.58;;
49252;SDS011;35103;47.952;-1.502;2022-07-18T02:04:17;850.35;;;777.95;;
49252;SDS011;35103;47.952;-1.502;2022-07-18T02:06:43;935.97;;;847.50;;
49252;SDS011;35103;47.952;-1.502;2022-07-18T02:09:09;748.22;;;683.95;;
49252;SDS011;35103;47.952;-1.502;2022-07-18T02:11:36;916.38;;;836.80;;
49252;SDS011;35103;47.952;-1.502;2022-07-18T02:14:03;883.78;;;809.50;;
49252;SDS011;35103;47.952;-1.502;2022-07-18T02:16:30;865.08;;;790.05;;
49252;SDS011;35103;47.952;-1.502;2022-07-18T02:18:56;827.38;;;760.65;;
49252;SDS011;35103;47.952;-1.502;2022-07-18T02:21:22;834.85;;;762.85;;
49252;SDS011;35103;47.952;-1.502;2022-07-18T02:23:48;841.80;;;772.10;;
49252;SDS011;35103;47.952;-1.502;2022-07-18T02:26:13;780.58;;;714.80;;
49252;SDS011;35103;47.952;-1.502;2022-07-18T02:28:39;788.30;;;721.70;;
49252;SDS011;35103;47.952;-1.502;2022-07-18T02:31:05;853.78;;;777.33;;
49252;SDS011;35103;47.952;-1.502;2022-07-18T02:33:31;874.42;;;799.05;;
49252;SDS011;35103;47.952;-1.502;2022-07-18T02:35:57;835.55;;;759.22;;
49252;SDS011;35103;47.952;-1.502;2022-07-18T02:38:23;870.88;;;799.38;;
49252;SDS011;35103;47.952;-1.502;2022-07-18T02:40:49;823.85;;;754.75;;
49252;SDS011;35103;47.952;-1.502;2022-07-18T02:43:14;914.95;;;833.67;;
49252;SDS011;35103;47.952;-1.502;2022-07-18T02:45:40;853.53;;;784.03;;
49252;SDS011;35103;47.952;-1.502;2022-07-18T02:48:06;858.55;;;788.47;;
49252;SDS011;35103;47.952;-1.502;2022-07-18T02:50:31;879.47;;;802.55;;
49252;SDS011;35103;47.952;-1.502;2022-07-18T02:52:57;870.38;;;798.92;;
49252;SDS011;35103;47.952;-1.502;2022-07-18T02:55:23;819.00;;;751.40;;
49252;SDS011;35103;47.952;-1.502;2022-07-18T02:57:48;861.70;;;788.70;;
49252;SDS011;35103;47.952;-1.502;2022-07-18T03:00:15;860.95;;;786.20;;
49252;SDS011;35103;47.952;-1.502;2022-07-18T03:02:41;808.05;;;741.38;;
49252;SDS011;35103;47.952;-1.502;2022-07-18T03:05:08;886.20;;;808.97;;
49252;SDS011;35103;47.952;-1.502;2022-07-18T03:07:34;830.90;;;761.85;;
49252;SDS011;35103;47.952;-1.502;2022-07-18T03:09:59;861.15;;;782.58;;
49252;SDS011;35103;47.952;-1.502;2022-07-18T03:12:25;763.20;;;699.63;;
49252;SDS011;35103;47.952;-1.502;2022-07-18T03:14:51;828.42;;;759.15;;
49252;SDS011;35103;47.952;-1.502;2022-07-18T03:17:16;829.63;;;760.05;;
49252;SDS011;35103;47.952;-1.502;2022-07-18T03:19:42;918.53;;;837.75;;
49252;SDS011;35103;47.952;-1.502;2022-07-18T03:22:07;914.65;;;834.17;;
49252;SDS011;35103;47.952;-1.502;2022-07-18T03:24:33;901.13;;;822.08;;
49252;SDS011;35103;47.952;-1.502;2022-07-18T03:26:59;838.55;;;767.63;;
49252;SDS011;35103;47.952;-1.502;2022-07-18T03:29:25;781.47;;;716.80;;
49252;SDS011;35103;47.952;-1.502;2022-07-18T03:31:50;790.20;;;721.22;;
49252;SDS011;35103;47.952;-1.502;2022-07-18T03:34:16;887.22;;;810.42;;
49252;SDS011;35103;47.952;-1.502;2022-07-18T03:36:42;849.10;;;778.78;;
49252;SDS011;35103;47.952;-1.502;2022-07-18T03:39:08;865.55;;;793.40;;
49252;SDS011;35103;47.952;-1.502;2022-07-18T03:41:35;833.20;;;761.53;;
49252;SDS011;35103;47.952;-1.502;2022-07-18T03:44:01;813.80;;;743.85;;
49252;SDS011;35103;47.952;-1.502;2022-07-18T03:46:28;917.83;;;833.90;;
49252;SDS011;35103;47.952;-1.502;2022-07-18T03:48:53;769.20;;;706.55;;
49252;SDS011;35103;47.952;-1.502;2022-07-18T03:51:19;866.97;;;793.80;;
49252;SDS011;35103;47.952;-1.502;2022-07-18T03:53:44;839.67;;;770.67;;
49252;SDS011;35103;47.952;-1.502;2022-07-18T03:56:10;895.15;;;818.90;;
49252;SDS011;35103;47.952;-1.502;2022-07-18T03:58:36;789.28;;;725.17;;
49252;SDS011;35103;47.952;-1.502;2022-07-18T04:01:02;805.63;;;737.83;;
49252;SDS011;35103;47.952;-1.502;2022-07-18T04:03:28;810.72;;;745.58;;
49252;SDS011;35103;47.952;-1.502;2022-07-18T04:05:53;854.00;;;783.90;;
49252;SDS011;35103;47.952;-1.502;2022-07-18T04:08:22;791.67;;;724.55;;
49252;SDS011;35103;47.952;-1.502;2022-07-18T04:10:47;826.85;;;753.50;;
49252;SDS011;35103;47.952;-1.502;2022-07-18T04:13:13;875.13;;;800.65;;
49252;SDS011;35103;47.952;-1.502;2022-07-18T04:15:39;800.00;;;734.38;;
49252;SDS011;35103;47.952;-1.502;2022-07-18T04:18:05;822.33;;;751.28;;
49252;SDS011;35103;47.952;-1.502;2022-07-18T04:20:31;898.10;;;820.17;;
49252;SDS011;35103;47.952;-1.502;2022-07-18T04:22:59;841.28;;;772.22;;
49252;SDS011;35103;47.952;-1.502;2022-07-18T04:25:27;933.10;;;849.58;;
49252;SDS011;35103;47.952;-1.502;2022-07-18T04:27:55;810.60;;;744.33;;
49252;SDS011;35103;47.952;-1.502;2022-07-18T04:30:22;787.85;;;719.95;;
49252;SDS011;35103;47.952;-1.502;2022-07-18T04:32:49;841.85;;;772.78;;
49252;SDS011;35103;47.952;-1.502;2022-07-18T04:35:15;854.22;;;784.40;;
49252;SDS011;35103;47.952;-1.502;2022-07-18T04:37:40;919.20;;;837.08;;
49252;SDS011;35103;47.952;-1.502;2022-07-18T04:40:06;832.33;;;765.17;;
49252;SDS011;35103;47.952;-1.502;2022-07-18T04:42:33;863.30;;;787.83;;
49252;SDS011;35103;47.952;-1.502;2022-07-18T04:44:59;882.45;;;809.38;;
49252;SDS011;35103;47.952;-1.502;2022-07-18T04:47:25;884.78;;;808.30;;
49252;SDS011;35103;47.952;-1.502;2022-07-18T04:49:51;882.88;;;809.65;;
49252;SDS011;35103;47.952;-1.502;2022-07-18T04:52:17;820.33;;;752.88;;
49252;SDS011;35103;47.952;-1.502;2022-07-18T04:54:43;835.80;;;765.00;;
49252;SDS011;35103;47.952;-1.502;2022-07-18T04:57:08;876.55;;;801.80;;
49252;SDS011;35103;47.952;-1.502;2022-07-18T04:59:34;854.67;;;782.90;;
49252;SDS011;35103;47.952;-1.502;2022-07-18T05:01:59;795.30;;;732.78;;
49252;SDS011;35103;47.952;-1.502;2022-07-18T05:04:25;816.60;;;750.15;;
49252;SDS011;35103;47.952;-1.502;2022-07-18T05:06:50;789.95;;;723.50;;
49252;SDS011;35103;47.952;-1.502;2022-07-18T05:09:16;804.13;;;739.45;;
49252;SDS011;35103;47.952;-1.502;2022-07-18T05:11:41;799.67;;;733.22;;
49252;SDS011;35103;47.952;-1.502;2022-07-18T05:14:07;776.28;;;712.30;;
49252;SDS011;35103;47.952;-1.502;2022-07-18T05:16:32;763.40;;;698.83;;
49252;SDS011;35103;47.952;-1.502;2022-07-18T05:18:58;851.50;;;777.42;;
49252;SDS011;35103;47.952;-1.502;2022-07-18T05:21:24;907.22;;;826.05;;
49252;SDS011;35103;47.952;-1.502;2022-07-18T05:23:49;827.03;;;756.88;;
49252;SDS011;35103;47.952;-1.502;2022-07-18T05:26:15;819.17;;;751.10;;
49252;SDS011;35103;47.952;-1.502;2022-07-18T05:28:40;787.60;;;723.10;;
49252;SDS011;35103;47.952;-1.502;2022-07-18T05:31:06;767.30;;;703.40;;
49252;SDS011;35103;47.952;-1.502;2022-07-18T05:33:32;867.55;;;793.30;;
49252;SDS011;35103;47.952;-1.502;2022-07-18T05:35:57;800.63;;;735.35;;
49252;SDS011;35103;47.952;-1.502;2022-07-18T05:38:23;761.17;;;700.17;;
49252;SDS011;35103;47.952;-1.502;2022-07-18T05:40:48;895.60;;;818.10;;
49252;SDS011;35103;47.952;-1.502;2022-07-18T05:43:14;839.83;;;767.83;;
49252;SDS011;35103;47.952;-1.502;2022-07-18T05:45:39;725.08;;;663.85;;
49252;SDS011;35103;47.952;-1.502;2022-07-18T05:48:05;823.30;;;748.35;;
49252;SDS011;35103;47.952;-1.502;2022-07-18T05:50:31;777.40;;;713.55;;
49252;SDS011;35103;47.952;-1.502;2022-07-18T05:52:57;776.58;;;714.80;;
49252;SDS011;35103;47.952;-1.502;2022-07-18T05:55:23;817.10;;;748.92;;
49252;SDS011;35103;47.952;-1.502;2022-07-18T05:57:50;750.72;;;690.30;;
49252;SDS011;35103;47.952;-1.502;2022-07-18T06:00:20;718.92;;;658.92;;
49252;SDS011;35103;47.952;-1.502;2022-07-18T06:02:49;789.58;;;722.95;;
49252;SDS011;35103;47.952;-1.502;2022-07-18T06:05:15;813.67;;;745.17;;
49252;SDS011;35103;47.952;-1.502;2022-07-18T06:07:41;826.50;;;755.33;;
49252;SDS011;35103;47.952;-1.502;2022-07-18T06:10:07;819.75;;;752.88;;
49252;SDS011;35103;47.952;-1.502;2022-07-18T06:12:33;826.08;;;754.95;;
49252;SDS011;35103;47.952;-1.502;2022-07-18T06:14:59;774.85;;;709.38;;
49252;SDS011;35103;47.952;-1.502;2022-07-18T06:17:25;778.10;;;717.05;;
49252;SDS011;35103;47.952;-1.502;2022-07-18T06:19:51;868.95;;;795.15;;
49252;SDS011;35103;47.952;-1.502;2022-07-18T06:22:17;828.97;;;759.13;;
49252;SDS011;35103;47.952;-1.502;2022-07-18T06:24:42;773.78;;;706.42;;
49252;SDS011;35103;47.952;-1.502;2022-07-18T06:27:08;829.75;;;759.28;;
49252;SDS011;35103;47.952;-1.502;2022-07-18T06:29:33;810.95;;;738.40;;
49252;SDS011;35103;47.952;-1.502;2022-07-18T06:31:59;759.45;;;692.40;;
49252;SDS011;35103;47.952;-1.502;2022-07-18T06:34:24;807.45;;;740.03;;
49252;SDS011;35103;47.952;-1.502;2022-07-18T06:36:50;794.50;;;727.38;;
49252;SDS011;35103;47.952;-1.502;2022-07-18T06:39:16;922.95;;;830.20;;
49252;SDS011;35103;47.952;-1.502;2022-07-18T06:41:41;861.72;;;787.17;;
49252;SDS011;35103;47.952;-1.502;2022-07-18T06:44:07;880.47;;;800.97;;
49252;SDS011;35103;47.952;-1.502;2022-07-18T06:46:33;749.38;;;690.25;;
49252;SDS011;35103;47.952;-1.502;2022-07-18T06:48:58;805.28;;;735.75;;
49252;SDS011;35103;47.952;-1.502;2022-07-18T06:51:24;840.55;;;772.78;;
49252;SDS011;35103;47.952;-1.502;2022-07-18T06:53:50;830.92;;;763.47;;
49252;SDS011;35103;47.952;-1.502;2022-07-18T06:56:16;810.15;;;743.40;;
49252;SDS011;35103;47.952;-1.502;2022-07-18T06:58:42;843.78;;;769.95;;
49252;SDS011;35103;47.952;-1.502;2022-07-18T07:01:08;886.60;;;807.60;;
49252;SDS011;35103;47.952;-1.502;2022-07-18T07:03:33;810.20;;;741.78;;
49252;SDS011;35103;47.952;-1.502;2022-07-18T07:05:59;795.17;;;727.90;;
49252;SDS011;35103;47.952;-1.502;2022-07-18T07:08:24;865.03;;;790.97;;
49252;SDS011;35103;47.952;-1.502;2022-07-18T07:10:50;867.58;;;795.33;;
49252;SDS011;35103;47.952;-1.502;2022-07-18T07:13:16;827.83;;;757.42;;
49252;SDS011;35103;47.952;-1.502;2022-07-18T07:15:41;843.50;;;769.72;;
49252;SDS011;35103;47.952;-1.502;2022-07-18T07:18:07;849.13;;;777.92;;
49252;SDS011;35103;47.952;-1.502;2022-07-18T07:20:32;837.38;;;770.50;;
49252;SDS011;35103;47.952;-1.502;2022-07-18T07:22:58;861.17;;;787.20;;
49252;SDS011;35103;47.952;-1.502;2022-07-18T07:25:24;850.70;;;778.03;;
49252;SDS011;35103;47.952;-1.502;2022-07-18T07:27:51;813.53;;;749.85;;
49252;SDS011;35103;47.952;-1.502;2022-07-18T07:30:18;834.97;;;768.05;;
49252;SDS011;35103;47.952;-1.502;2022-07-18T07:32:44;899.97;;;818.80;;
49252;SDS011;35103;47.952;-1.502;2022-07-18T07:35:11;865.88;;;792.80;;
49252;SDS011;35103;47.952;-1.502;2022-07-18T07:37:38;872.10;;;793.85;;
49252;SDS011;35103;47.952;-1.502;2022-07-18T07:40:05;825.90;;;753.90;;
49252;SDS011;35103;47.952;-1.502;2022-07-18T07:42:31;917.58;;;827.20;;
49252;SDS011;35103;47.952;-1.502;2022-07-18T07:44:57;954.03;;;856.38;;
49252;SDS011;35103;47.952;-1.502;2022-07-18T07:47:23;901.28;;;819.78;;
49252;SDS011;35103;47.952;-1.502;2022-07-18T07:49:48;865.65;;;784.50;;
49252;SDS011;35103;47.952;-1.502;2022-07-18T07:52:14;831.50;;;761.85;;
49252;SDS011;35103;47.952;-1.502;2022-07-18T07:54:40;889.28;;;814.53;;
49252;SDS011;35103;47.952;-1.502;2022-07-18T07:57:05;881.65;;;803.72;;
49252;SDS011;35103;47.952;-1.502;2022-07-18T07:59:31;835.65;;;765.78;;
49252;SDS011;35103;47.952;-1.502;2022-07-18T08:01:57;852.83;;;780.85;;
49252;SDS011;35103;47.952;-1.502;2022-07-18T08:04:25;881.40;;;800.97;;
49252;SDS011;35103;47.952;-1.502;2022-07-18T08:06:51;913.92;;;833.50;;
49252;SDS011;35103;47.952;-1.502;2022-07-18T08:09:17;885.42;;;812.22;;
49252;SDS011;35103;47.952;-1.502;2022-07-18T08:11:42;895.33;;;814.85;;
49252;SDS011;35103;47.952;-1.502;2022-07-18T08:14:08;843.33;;;768.28;;
49252;SDS011;35103;47.952;-1.502;2022-07-18T08:16:33;836.33;;;760.28;;
49252;SDS011;35103;47.952;-1.502;2022-07-18T08:18:59;840.53;;;769.65;;
49252;SDS011;35103;47.952;-1.502;2022-07-18T08:21:25;874.50;;;802.72;;
49252;SDS011;35103;47.952;-1.502;2022-07-18T08:23:50;884.58;;;800.85;;
49252;SDS011;35103;47.952;-1.502;2022-07-18T08:26:16;903.97;;;822.63;;
49252;SDS011;35103;47.952;-1.502;2022-07-18T08:28:41;875.55;;;798.42;;
49252;SDS011;35103;47.952;-1.502;2022-07-18T08:31:07;878.95;;;801.20;;
49252;SDS011;35103;47.952;-1.502;2022-07-18T08:33:33;914.83;;;829.45;;
49252;SDS011;35103;47.952;-1.502;2022-07-18T08:35:58;937.72;;;849.67;;
49252;SDS011;35103;47.952;-1.502;2022-07-18T08:38:24;907.30;;;819.28;;
49252;SDS011;35103;47.952;-1.502;2022-07-18T08:40:50;967.30;;;868.88;;
49252;SDS011;35103;47.952;-1.502;2022-07-18T08:43:17;902.80;;;822.70;;
49252;SDS011;35103;47.952;-1.502;2022-07-18T08:45:43;934.50;;;842.22;;
49252;SDS011;35103;47.952;-1.502;2022-07-18T08:48:12;964.72;;;870.92;;
49252;SDS011;35103;47.952;-1.502;2022-07-18T08:50:41;873.47;;;799.50;;
49252;SDS011;35103;47.952;-1.502;2022-07-18T08:53:11;895.50;;;810.65;;
49252;SDS011;35103;47.952;-1.502;2022-07-18T08:55:38;912.03;;;824.83;;
49252;SDS011;35103;47.952;-1.502;2022-07-18T08:58:03;903.65;;;819.58;;
49252;SDS011;35103;47.952;-1.502;2022-07-18T09:00:29;870.75;;;792.63;;
49252;SDS011;35103;47.952;-1.502;2022-07-18T09:03:01;937.03;;;847.75;;
49252;SDS011;35103;47.952;-1.502;2022-07-18T09:05:28;902.25;;;818.67;;
49252;SDS011;35103;47.952;-1.502;2022-07-18T09:08:08;892.17;;;817.28;;
49252;SDS011;35103;47.952;-1.502;2022-07-18T09:10:41;971.53;;;869.20;;
49252;SDS011;35103;47.952;-1.502;2022-07-18T09:15:59;872.25;;;792.25;;
49252;SDS011;35103;47.952;-1.502;2022-07-18T09:18:51;968.30;;;874.45;;
49252;SDS011;35103;47.952;-1.502;2022-07-18T09:21:18;902.05;;;821.08;;
49252;SDS011;35103;47.952;-1.502;2022-07-18T09:23:46;893.80;;;815.38;;
49252;SDS011;35103;47.952;-1.502;2022-07-18T09:26:33;867.15;;;789.22;;
49252;SDS011;35103;47.952;-1.502;2022-07-18T09:29:07;896.85;;;812.28;;
49252;SDS011;35103;47.952;-1.502;2022-07-18T09:31:33;915.00;;;826.72;;
49252;SDS011;35103;47.952;-1.502;2022-07-18T09:34:00;925.58;;;834.15;;
49252;SDS011;35103;47.952;-1.502;2022-07-18T09:36:28;913.42;;;830.38;;
49252;SDS011;35103;47.952;-1.502;2022-07-18T09:38:54;952.88;;;863.20;;
49252;SDS011;35103;47.952;-1.502;2022-07-18T09:41:26;960.63;;;867.72;;
49252;SDS011;35103;47.952;-1.502;2022-07-18T09:43:53;912.85;;;828.47;;
49252;SDS011;35103;47.952;-1.502;2022-07-18T09:46:21;975.35;;;874.65;;
49252;SDS011;35103;47.952;-1.502;2022-07-18T09:48:47;925.38;;;835.53;;
49252;SDS011;35103;47.952;-1.502;2022-07-18T09:51:32;911.17;;;822.38;;
49252;SDS011;35103;47.952;-1.502;2022-07-18T09:53:57;971.17;;;879.55;;
49252;SDS011;35103;47.952;-1.502;2022-07-18T09:56:23;923.15;;;839.22;;
49252;SDS011;35103;47.952;-1.502;2022-07-18T09:58:50;922.70;;;837.10;;
49252;SDS011;35103;47.952;-1.502;2022-07-18T10:01:17;963.33;;;868.15;;
49252;SDS011;35103;47.952;-1.502;2022-07-18T10:03:43;911.63;;;825.75;;
49252;SDS011;35103;47.952;-1.502;2022-07-18T10:06:09;904.20;;;818.90;;
49252;SDS011;35103;47.952;-1.502;2022-07-18T10:08:35;906.80;;;820.10;;
49252;SDS011;35103;47.952;-1.502;2022-07-18T10:11:02;973.60;;;874.88;;
49252;SDS011;35103;47.952;-1.502;2022-07-18T10:13:30;933.42;;;844.35;;
49252;SDS011;35103;47.952;-1.502;2022-07-18T10:15:57;935.00;;;837.78;;
49252;SDS011;35103;47.952;-1.502;2022-07-18T10:18:24;946.10;;;855.80;;
49252;SDS011;35103;47.952;-1.502;2022-07-18T10:20:53;904.72;;;819.20;;
49252;SDS011;35103;47.952;-1.502;2022-07-18T10:31:21;904.30;;;816.35;;
49252;SDS011;35103;47.952;-1.502;2022-07-18T10:33:47;966.95;;;867.55;;
49252;SDS011;35103;47.952;-1.502;2022-07-18T10:36:13;950.50;;;847.80;;
49252;SDS011;35103;47.952;-1.502;2022-07-18T10:39:31;939.30;;;844.47;;
49252;SDS011;35103;47.952;-1.502;2022-07-18T10:41:33;910.92;;;821.53;;
49252;SDS011;35103;47.952;-1.502;2022-07-18T10:57:27;934.42;;;839.33;;
49252;SDS011;35103;47.952;-1.502;2022-07-18T11:02:39;924.38;;;831.83;;
49252;SDS011;35103;47.952;-1.502;2022-07-18T11:08:14;917.63;;;826.03;;
49252;SDS011;35103;47.952;-1.502;2022-07-18T11:18:23;947.30;;;852.85;;
49252;SDS011;35103;47.952;-1.502;2022-07-18T11:20:49;936.30;;;839.30;;
49252;SDS011;35103;47.952;-1.502;2022-07-18T11:23:19;902.58;;;816.10;;
49252;SDS011;35103;47.952;-1.502;2022-07-18T11:25:53;952.03;;;851.75;;
49252;SDS011;35103;47.952;-1.502;2022-07-18T11:28:20;970.85;;;869.90;;
49252;SDS011;35103;47.952;-1.502;2022-07-18T11:30:58;929.70;;;835.17;;
49252;SDS011;35103;47.952;-1.502;2022-07-18T11:33:27;1011.72;;;902.25;;
49252;SDS011;35103;47.952;-1.502;2022-07-18T11:36:10;973.35;;;871.47;;
49252;SDS011;35103;47.952;-1.502;2022-07-18T11:38:50;963.83;;;864.55;;
49252;SDS011;35103;47.952;-1.502;2022-07-18T11:41:23;941.67;;;846.70;;
49252;SDS011;35103;47.952;-1.502;2022-07-18T11:43:49;962.42;;;862.00;;
49252;SDS011;35103;47.952;-1.502;2022-07-18T11:46:17;950.20;;;850.00;;
49252;SDS011;35103;47.952;-1.502;2022-07-18T11:48:45;943.85;;;847.58;;
49252;SDS011;35103;47.952;-1.502;2022-07-18T11:51:21;965.13;;;864.92;;
49252;SDS011;35103;47.952;-1.502;2022-07-18T11:56:14;952.78;;;849.28;;
49252;SDS011;35103;47.952;-1.502;2022-07-18T11:58:42;963.72;;;863.47;;
49252;SDS011;35103;47.952;-1.502;2022-07-18T12:01:09;952.92;;;855.17;;
49252;SDS011;35103;47.952;-1.502;2022-07-18T12:03:36;1144.07;;;901.35;;
49252;SDS011;35103;47.952;-1.502;2022-07-18T12:13:48;969.65;;;864.25;;
49252;SDS011;35103;47.952;-1.502;2022-07-18T12:16:24;972.80;;;868.95;;
49252;SDS011;35103;47.952;-1.502;2022-07-18T12:18:50;991.25;;;881.88;;
49252;SDS011;35103;47.952;-1.502;2022-07-18T12:21:21;980.13;;;877.08;;
49252;SDS011;35103;47.952;-1.502;2022-07-18T12:23:47;980.75;;;874.85;;
49252;SDS011;35103;47.952;-1.502;2022-07-18T12:26:25;906.38;;;818.05;;
49252;SDS011;35103;47.952;-1.502;2022-07-18T12:29:07;1014.83;;;902.58;;
49252;SDS011;35103;47.952;-1.502;2022-07-18T12:31:37;915.13;;;820.13;;
49252;SDS011;35103;47.952;-1.502;2022-07-18T12:34:14;903.60;;;816.43;;
49252;SDS011;35103;47.952;-1.502;2022-07-18T12:36:54;941.83;;;844.15;;
49252;SDS011;35103;47.952;-1.502;2022-07-18T12:39:25;938.60;;;842.63;;
49252;SDS011;35103;47.952;-1.502;2022-07-18T12:41:51;970.65;;;868.47;;
49252;SDS011;35103;47.952;-1.502;2022-07-18T12:44:17;1230.40;;;905.63;;
49252;SDS011;35103;47.952;-1.502;2022-07-18T12:46:43;947.13;;;845.50;;
49252;SDS011;35103;47.952;-1.502;2022-07-18T12:49:08;957.33;;;856.22;;
49252;SDS011;35103;47.952;-1.502;2022-07-18T12:51:34;1058.13;;;904.17;;
49252;SDS011;35103;47.952;-1.502;2022-07-18T12:53:59;1062.60;;;887.78;;
49252;SDS011;35103;47.952;-1.502;2022-07-18T12:56:25;970.75;;;870.08;;
49252;SDS011;35103;47.952;-1.502;2022-07-18T12:58:50;926.10;;;836.00;;
49252;SDS011;35103;47.952;-1.502;2022-07-18T13:01:16;987.42;;;881.88;;
49252;SDS011;35103;47.952;-1.502;2022-07-18T13:03:42;900.47;;;810.70;;
49252;SDS011;35103;47.952;-1.502;2022-07-18T13:06:07;912.78;;;820.95;;
49252;SDS011;35103;47.952;-1.502;2022-07-18T13:08:33;980.97;;;868.90;;
49252;SDS011;35103;47.952;-1.502;2022-07-18T13:10:58;957.55;;;856.90;;
49252;SDS011;35103;47.952;-1.502;2022-07-18T13:13:24;934.65;;;837.75;;
49252;SDS011;35103;47.952;-1.502;2022-07-18T13:15:50;932.70;;;834.67;;
49252;SDS011;35103;47.952;-1.502;2022-07-18T13:18:16;980.83;;;876.42;;
49252;SDS011;35103;47.952;-1.502;2022-07-18T13:20:42;971.50;;;865.65;;
49252;SDS011;35103;47.952;-1.502;2022-07-18T13:23:07;999.47;;;886.10;;
49252;SDS011;35103;47.952;-1.502;2022-07-18T13:25:33;1066.43;;;906.10;;
49252;SDS011;35103;47.952;-1.502;2022-07-18T13:27:58;953.80;;;848.40;;
49252;SDS011;35103;47.952;-1.502;2022-07-18T13:30:24;962.38;;;861.40;;
49252;SDS011;35103;47.952;-1.502;2022-07-18T13:32:50;1019.92;;;880.92;;
49252;SDS011;35103;47.952;-1.502;2022-07-18T13:35:16;963.80;;;858.88;;
49252;SDS011;35103;47.952;-1.502;2022-07-18T13:37:42;950.85;;;849.92;;
49252;SDS011;35103;47.952;-1.502;2022-07-18T13:40:08;931.08;;;828.42;;
49252;SDS011;35103;47.952;-1.502;2022-07-18T13:42:35;1123.03;;;907.65;;
49252;SDS011;35103;47.952;-1.502;2022-07-18T13:45:01;947.80;;;849.40;;
49252;SDS011;35103;47.952;-1.502;2022-07-18T13:47:27;967.20;;;854.55;;
49252;SDS011;35103;47.952;-1.502;2022-07-18T13:49:53;933.88;;;837.53;;
49252;SDS011;35103;47.952;-1.502;2022-07-18T13:52:18;930.85;;;832.70;;
49252;SDS011;35103;47.952;-1.502;2022-07-18T13:54:44;1051.30;;;887.60;;
49252;SDS011;35103;47.952;-1.502;2022-07-18T13:57:13;981.60;;;876.30;;
49252;SDS011;35103;47.952;-1.502;2022-07-18T13:59:38;952.50;;;850.90;;
49252;SDS011;35103;47.952;-1.502;2022-07-18T14:02:05;960.97;;;858.47;;
49252;SDS011;35103;47.952;-1.502;2022-07-18T14:04:31;1205.50;;;907.58;;
49252;SDS011;35103;47.952;-1.502;2022-07-18T14:06:56;1257.30;;;915.05;;
49252;SDS011;35103;47.952;-1.502;2022-07-18T14:09:22;1002.88;;;874.85;;
49252;SDS011;35103;47.952;-1.502;2022-07-18T14:11:47;955.92;;;845.80;;
49252;SDS011;35103;47.952;-1.502;2022-07-18T14:14:13;956.38;;;854.42;;
49252;SDS011;35103;47.952;-1.502;2022-07-18T14:16:39;949.95;;;848.05;;
49252;SDS011;35103;47.952;-1.502;2022-07-18T14:19:04;961.40;;;853.97;;
49252;SDS011;35103;47.952;-1.502;2022-07-18T14:21:30;967.58;;;849.85;;
49252;SDS011;35103;47.952;-1.502;2022-07-18T14:23:56;948.53;;;849.08;;
49252;SDS011;35103;47.952;-1.502;2022-07-18T14:26:22;953.92;;;852.72;;
49252;SDS011;35103;47.952;-1.502;2022-07-18T14:28:48;995.75;;;885.83;;